Time;durP1;ratioP1;P1;durP2;ratioP2;P2;SDS_P1;SDS_P2;PMS_P1;PMS_P2;Temp;Humidity;BMP_temperature;BMP_pressure;BME280_temperature;BME280_humidity;BME280_pressure;Samples;Min_cycle;Max_cycle;Signal;HPM_P1;HPM_P2
2022/03/31 00:01:08;;;;;;;;;;;;;;;;;;;;;
2022/03/31 00:03:43;;;;;;;29.95;12.80;;;;;;;;;;5107007;27;44206;-82
2022/03/31 00:06:20;;;;;;;37.30;17.25;;;;;;;;;;5112382;27;20058;-82
2022/03/31 00:09:00;;;;;;;43.28;20.35;;;;;;;;;;5114552;27;20429;-82
2022/03/31 00:11:30;;;;;;;51.50;21.23;;;;;;;;;;5127467;27;20178;-84
2022/03/31 00:14:14;;;;;;;;;;;;;;;;;;;;;
2022/03/31 00:16:52;;;;;;;47.55;21.23;;;;;;;;;;5117299;27;42655;-83
2022/03/31 00:19:29;;;;;;;45.80;19.52;;;;;;;;;;5112205;27;20043;-83
2022/03/31 00:22:03;;;;;;;27.50;15.70;;;;;;;;;;5109208;27;20036;-83
2022/03/31 00:24:37;;;;;;;41.53;19.27;;;;;;;;;;5115469;27;20126;-83
2022/03/31 00:27:08;;;;;;;46.88;20.20;;;;;;;;;;5114504;27;20046;-82
2022/03/31 00:29:40;;;;;;;53.58;22.58;;;;;;;;;;5105813;27;20186;-82
2022/03/31 00:35:02;;;;;;;33.17;16.10;;;;;;;;;;5106981;27;20052;-82
2022/03/31 00:37:30;;;;;;;42.58;19.63;;;;;;;;;;5114426;27;20237;-83
2022/03/31 00:39:59;;;;;;;39.72;19.58;;;;;;;;;;5112421;27;20051;-83
2022/03/31 00:42:44;;;;;;;59.58;22.40;;;;;;;;;;5108385;27;20046;-83
2022/03/31 00:45:19;;;;;;;40.53;16.20;;;;;;;;;;5113904;27;20055;-84
2022/03/31 00:47:51;;;;;;;43.90;19.38;;;;;;;;;;5109383;27;20066;-83
2022/03/31 00:50:28;;;;;;;51.78;20.10;;;;;;;;;;5112272;27;20060;-83
2022/03/31 00:53:04;;;;;;;50.20;20.60;;;;;;;;;;5112941;27;20056;-83
2022/03/31 00:55:30;;;;;;;40.65;19.83;;;;;;;;;;5106843;27;20048;-83
2022/03/31 00:58:05;;;;;;;47.92;20.73;;;;;;;;;;5112445;27;20051;-82
2022/03/31 01:00:54;;;;;;;50.72;19.83;;;;;;;;;;5113108;27;21041;-82
2022/03/31 01:03:50;;;;;;;39.45;19.52;;;;;;;;;;5110844;27;20058;-83
2022/03/31 01:06:31;;;;;;;50.17;21.05;;;;;;;;;;5111425;27;20101;-82
2022/03/31 01:09:06;;;;;;;31.55;14.45;;;;;;;;;;5110657;27;20048;-83
2022/03/31 01:11:34;;;;;;;;;;;;;;;;;;5113950;27;20501;-83
2022/03/31 01:14:03;;;;;;;33.70;17.15;;;;;;;;;;5111697;27;19920;-82
2022/03/31 01:16:34;;;;;;;45.75;20.85;;;;;;;;;;5113833;27;20051;-82
2022/03/31 01:19:21;;;;;;;42.07;15.83;;;;;;;;;;5115103;27;20048;-82
2022/03/31 01:21:51;;;;;;;49.58;17.92;;;;;;;;;;5110554;27;20129;-82
2022/03/31 01:24:28;;;;;;;38.08;18.80;;;;;;;;;;5109636;27;20056;-83
2022/03/31 01:27:31;;;;;;;42.30;19.73;;;;;;;;;;5108792;27;21073;-82
2022/03/31 01:33:20;;;;;;;47.33;20.27;;;;;;;;;;5053738;27;20053;-82
2022/03/31 01:39:03;;;;;;;40.83;19.33;;;;;;;;;;5111783;27;20064;-82
2022/03/31 01:41:38;;;;;;;42.97;18.67;;;;;;;;;;5110213;27;20524;-82
2022/03/31 01:44:04;;;;;;;37.88;18.08;;;;;;;;;;5109787;27;20581;-82
2022/03/31 01:46:33;;;;;;;49.03;20.15;;;;;;;;;;5109158;27;20097;-82
2022/03/31 01:49:40;;;;;;;42.33;21.20;;;;;;;;;;5115546;27;20082;-82
2022/03/31 01:52:14;;;;;;;49.08;19.23;;;;;;;;;;5113629;27;20051;-82
2022/03/31 01:54:43;;;;;;;39.65;16.25;;;;;;;;;;5114170;27;20040;-82
2022/03/31 01:57:26;;;;;;;42.67;18.90;;;;;;;;;;5110793;27;20049;-82
2022/03/31 01:59:56;;;;;;;38.45;18.58;;;;;;;;;;5114803;27;20048;-83
2022/03/31 02:02:31;;;;;;;37.85;18.27;;;;;;;;;;5114083;27;20101;-82
2022/03/31 02:05:15;;;;;;;47.40;19.88;;;;;;;;;;5110477;27;20096;-81
2022/03/31 02:07:50;;;;;;;34.63;16.00;;;;;;;;;;5112040;27;20047;-82
2022/03/31 02:10:26;;;;;;;40.63;17.33;;;;;;;;;;5113773;27;20051;-82
2022/03/31 02:12:55;;;;;;;35.85;16.42;;;;;;;;;;5111483;27;20048;-82
2022/03/31 02:15:26;;;;;;;39.70;16.85;;;;;;;;;;5114322;27;20051;-81
2022/03/31 02:17:53;;;;;;;38.92;15.43;;;;;;;;;;5111491;27;20055;-82
2022/03/31 02:20:20;;;;;;;31.83;15.95;;;;;;;;;;5116363;27;20274;-81
2022/03/31 02:22:56;;;;;;;37.97;16.40;;;;;;;;;;5116872;27;20452;-82
2022/03/31 02:25:22;;;;;;;19.83;10.77;;;;;;;;;;5111239;27;20532;-81
2022/03/31 02:27:53;;;;;;;26.75;12.93;;;;;;;;;;5114476;27;20156;-82
2022/03/31 02:30:27;;;;;;;38.00;17.77;;;;;;;;;;5114178;27;20056;-82
2022/03/31 02:32:55;;;;;;;38.50;14.88;;;;;;;;;;5114622;27;20053;-82
2022/03/31 02:35:30;;;;;;;32.22;17.05;;;;;;;;;;5128378;27;20043;-82
2022/03/31 02:38:02;;;;;;;52.90;18.85;;;;;;;;;;5110145;27;20037;-82
2022/03/31 02:40:36;;;;;;;40.47;16.70;;;;;;;;;;5118138;27;20051;-82
2022/03/31 02:43:05;;;;;;;43.70;20.45;;;;;;;;;;5112334;27;20043;-82
2022/03/31 02:45:41;;;;;;;38.78;17.27;;;;;;;;;;5114289;27;20184;-82
2022/03/31 02:48:12;;;;;;;41.65;17.92;;;;;;;;;;5105770;27;20047;-82
2022/03/31 02:50:59;;;;;;;13.07;7.32;;;;;;;;;;5085525;27;20540;-82
2022/03/31 02:56:10;;;;;;;48.70;19.48;;;;;;;;;;5109027;27;20778;-82
2022/03/31 02:58:36;;;;;;;28.73;13.48;;;;;;;;;;5109658;27;20942;-82
2022/03/31 03:01:02;;;;;;;43.30;17.15;;;;;;;;;;5094362;27;20054;-83
2022/03/31 03:03:32;;;;;;;39.35;14.90;;;;;;;;;;5095432;27;20104;-82
2022/03/31 03:06:09;;;;;;;28.65;12.60;;;;;;;;;;5096778;27;20107;-82
2022/03/31 03:08:35;;;;;;;49.40;19.50;;;;;;;;;;5090505;27;20994;-81
2022/03/31 03:11:05;;;;;;;43.60;16.08;;;;;;;;;;5097478;27;20056;-82
2022/03/31 03:13:31;;;;;;;39.03;16.05;;;;;;;;;;5116425;27;20050;-81
2022/03/31 03:15:57;;;;;;;49.33;17.77;;;;;;;;;;5118043;27;20135;-82
2022/03/31 03:18:23;;;;;;;37.28;16.70;;;;;;;;;;5117792;27;20344;-82
2022/03/31 03:20:49;;;;;;;40.00;20.40;;;;;;;;;;5119599;27;20138;-82
2022/03/31 03:23:16;;;;;;;44.08;18.70;;;;;;;;;;5119701;27;20046;-82
2022/03/31 03:25:42;;;;;;;45.35;19.15;;;;;;;;;;5121982;27;20051;-81
2022/03/31 03:28:08;;;;;;;32.97;13.68;;;;;;;;;;5131729;27;20035;-81
2022/03/31 03:30:35;;;;;;;37.90;13.27;;;;;;;;;;5111724;27;20131;-82
2022/03/31 03:33:01;;;;;;;48.83;16.08;;;;;;;;;;5137265;27;20042;-82
2022/03/31 03:35:27;;;;;;;38.03;16.75;;;;;;;;;;5117671;27;20048;-81
2022/03/31 03:37:56;;;;;;;49.38;18.98;;;;;;;;;;5118315;27;20043;-82
2022/03/31 03:40:22;;;;;;;41.55;15.98;;;;;;;;;;5118154;27;20051;-81
2022/03/31 03:42:52;;;;;;;42.60;19.10;;;;;;;;;;5113115;27;20078;-82
2022/03/31 03:45:19;;;;;;;40.08;17.27;;;;;;;;;;5117963;27;20118;-81
2022/03/31 03:47:45;;;;;;;39.53;17.20;;;;;;;;;;5133117;27;20043;-80
2022/03/31 03:50:11;;;;;;;37.67;17.33;;;;;;;;;;5115775;27;20336;-82
2022/03/31 03:52:39;;;;;;;45.25;19.83;;;;;;;;;;5118954;27;20092;-81
2022/03/31 03:55:06;;;;;;;38.47;15.63;;;;;;;;;;5120671;27;20090;-83
2022/03/31 03:57:32;;;;;;;48.28;18.60;;;;;;;;;;5114382;27;20177;-81
2022/03/31 04:00:01;;;;;;;37.70;17.23;;;;;;;;;;5115075;27;20051;-81
2022/03/31 04:02:27;;;;;;;45.95;16.83;;;;;;;;;;5115536;27;20066;-82
2022/03/31 04:04:53;;;;;;;37.70;17.67;;;;;;;;;;5117770;27;20129;-82
2022/03/31 04:07:20;;;;;;;39.35;15.98;;;;;;;;;;5119882;27;20130;-81
2022/03/31 04:10:02;;;;;;;44.03;17.25;;;;;;;;;;5120268;27;20150;-81
2022/03/31 04:12:28;;;;;;;;;;;;;;;;;;5122120;27;20081;-81
2022/03/31 04:15:00;;;;;;;34.75;14.82;;;;;;;;;;5117091;27;19930;-81
2022/03/31 04:20:16;;;;;;;31.33;13.00;;;;;;;;;;5121182;27;20058;-81
2022/03/31 04:23:01;;;;;;;47.22;16.42;;;;;;;;;;5118097;27;20573;-82
2022/03/31 04:25:32;;;;;;;37.05;15.75;;;;;;;;;;5118302;27;20125;-83
2022/03/31 04:28:17;;;;;;;40.05;16.58;;;;;;;;;;5140336;27;20035;-81
2022/03/31 04:30:54;;;;;;;41.13;17.85;;;;;;;;;;5116606;27;20539;-81
2022/03/31 04:33:28;;;;;;;30.77;14.52;;;;;;;;;;5114414;27;20043;-82
2022/03/31 04:35:55;;;;;;;42.08;18.90;;;;;;;;;;5115745;27;20119;-82
2022/03/31 04:38:26;;;;;;;35.47;18.27;;;;;;;;;;5117347;27;20556;-82
2022/03/31 04:40:52;;;;;;;48.35;17.33;;;;;;;;;;5116083;27;20047;-82
2022/03/31 04:43:27;;;;;;;36.35;16.20;;;;;;;;;;5114642;27;20105;-84
2022/03/31 04:45:56;;;;;;;40.08;16.73;;;;;;;;;;5117187;27;20051;-82
2022/03/31 04:48:22;;;;;;;38.17;17.55;;;;;;;;;;5118755;27;20039;-82
2022/03/31 04:50:52;;;;;;;35.80;14.65;;;;;;;;;;5117927;27;20048;-82
2022/03/31 04:53:20;;;;;;;48.42;19.35;;;;;;;;;;5132463;27;20062;-82
2022/03/31 04:56:03;;;;;;;49.17;16.42;;;;;;;;;;5113630;27;20046;-82
2022/03/31 04:58:39;;;;;;;;;;;;;;;;;;;;;
2022/03/31 05:01:10;;;;;;;38.53;17.13;;;;;;;;;;5133661;27;44856;-82
2022/03/31 05:03:57;;;;;;;27.80;13.95;;;;;;;;;;5112580;27;20123;-82
2022/03/31 05:06:24;;;;;;;42.50;15.90;;;;;;;;;;5113501;27;20043;-81
2022/03/31 05:08:53;;;;;;;40.10;15.55;;;;;;;;;;5118848;27;20050;-81
2022/03/31 05:11:19;;;;;;;46.53;17.80;;;;;;;;;;5113918;27;20155;-82
2022/03/31 05:13:48;;;;;;;42.45;16.35;;;;;;;;;;5111709;27;20043;-81
2022/03/31 05:16:14;;;;;;;43.85;18.73;;;;;;;;;;5114896;27;20185;-82
2022/03/31 05:18:50;;;;;;;;;;;;;;;;;;;;;
2022/03/31 05:21:17;;;;;;;36.83;14.90;;;;;;;;;;5135956;27;43056;-82
2022/03/31 05:23:43;;;;;;;40.17;16.23;;;;;;;;;;5113450;27;20039;-81
2022/03/31 05:26:14;;;;;;;45.53;17.52;;;;;;;;;;5116983;27;20051;-82
2022/03/31 05:28:43;;;;;;;37.15;18.10;;;;;;;;;;5113946;27;20043;-82
2022/03/31 05:31:15;;;;;;;29.95;14.10;;;;;;;;;;5113174;27;21907;-82
2022/03/31 05:33:49;;;;;;;39.17;14.75;;;;;;;;;;5115009;27;20641;-80
2022/03/31 05:36:26;;;;;;;40.65;16.50;;;;;;;;;;5115640;27;20120;-83
2022/03/31 05:39:03;;;;;;;34.53;14.40;;;;;;;;;;5121920;27;20101;-81
2022/03/31 05:41:57;;;;;;;49.67;17.98;;;;;;;;;;5127186;27;20053;-82
2022/03/31 05:44:26;;;;;;;44.42;17.45;;;;;;;;;;5112477;27;20063;-82
2022/03/31 05:46:55;;;;;;;45.78;16.80;;;;;;;;;;5118317;27;20135;-81
2022/03/31 05:49:24;;;;;;;52.63;19.27;;;;;;;;;;5116509;27;20046;-82
2022/03/31 05:52:04;;;;;;;47.90;17.73;;;;;;;;;;5114194;27;20051;-81
2022/03/31 05:54:31;;;;;;;51.67;17.75;;;;;;;;;;5117265;27;20047;-81
2022/03/31 05:56:57;;;;;;;39.65;15.35;;;;;;;;;;5114992;27;20063;-82
2022/03/31 05:59:26;;;;;;;39.75;17.88;;;;;;;;;;5117139;27;20097;-81
2022/03/31 06:01:57;;;;;;;45.60;17.88;;;;;;;;;;5114400;27;20548;-81
2022/03/31 06:04:26;;;;;;;34.58;13.70;;;;;;;;;;5116003;27;20035;-84
2022/03/31 06:07:27;;;;;;;44.38;17.13;;;;;;;;;;5113061;27;20051;-85
2022/03/31 06:09:55;;;;;;;38.55;16.70;;;;;;;;;;5128419;27;20076;-82
2022/03/31 06:12:24;;;;;;;36.92;15.35;;;;;;;;;;5114403;27;20051;-82
2022/03/31 06:14:50;;;;;;;38.78;16.70;;;;;;;;;;5116414;27;20089;-81
2022/03/31 06:17:22;;;;;;;44.08;17.90;;;;;;;;;;5134981;27;20088;-82
2022/03/31 06:19:48;;;;;;;45.03;16.13;;;;;;;;;;5115943;27;20458;-81
2022/03/31 06:22:17;;;;;;;41.58;15.18;;;;;;;;;;5131519;27;20113;-81
2022/03/31 06:24:48;;;;;;;42.63;16.92;;;;;;;;;;5114169;27;20489;-81
2022/03/31 06:27:42;;;;;;;45.47;18.15;;;;;;;;;;5119270;27;20548;-82
2022/03/31 06:30:11;;;;;;;44.78;16.67;;;;;;;;;;5130230;27;20119;-79
2022/03/31 06:32:38;;;;;;;38.38;15.77;;;;;;;;;;5122627;27;20047;-81
2022/03/31 06:35:04;;;;;;;36.78;15.73;;;;;;;;;;5118447;27;20044;-81
2022/03/31 06:37:30;;;;;;;42.20;17.52;;;;;;;;;;5132183;27;20032;-81
2022/03/31 06:39:57;;;;;;;42.53;17.10;;;;;;;;;;5135404;27;20040;-81
2022/03/31 06:42:23;;;;;;;38.60;14.75;;;;;;;;;;5134360;27;20043;-81
2022/03/31 06:44:49;;;;;;;43.53;15.55;;;;;;;;;;5115816;27;20036;-81
2022/03/31 06:47:15;;;;;;;49.53;19.95;;;;;;;;;;5128830;27;20045;-81
2022/03/31 06:49:41;;;;;;;47.30;19.15;;;;;;;;;;5132887;27;20035;-80
2022/03/31 06:52:11;;;;;;;47.10;18.60;;;;;;;;;;5120435;27;20075;-79
2022/03/31 06:54:47;;;;;;;42.95;18.65;;;;;;;;;;5135516;27;20860;-80
2022/03/31 06:57:13;;;;;;;43.65;15.95;;;;;;;;;;5136367;27;20120;-80
2022/03/31 06:59:40;;;;;;;43.88;20.27;;;;;;;;;;5134043;27;20115;-78
2022/03/31 07:02:06;;;;;;;49.90;19.45;;;;;;;;;;5116916;27;20044;-78
2022/03/31 07:04:33;;;;;;;54.25;20.15;;;;;;;;;;5137284;27;20124;-78
2022/03/31 07:06:59;;;;;;;42.83;17.10;;;;;;;;;;5134346;27;20129;-78
2022/03/31 07:09:25;;;;;;;49.13;18.60;;;;;;;;;;5135027;27;20104;-78
2022/03/31 07:11:51;;;;;;;45.20;17.20;;;;;;;;;;5117371;27;20071;-79
2022/03/31 07:14:17;;;;;;;46.85;18.27;;;;;;;;;;5132912;27;20031;-79
2022/03/31 07:16:45;;;;;;;52.38;21.05;;;;;;;;;;5119630;27;20035;-78
2022/03/31 07:19:12;;;;;;;45.00;19.42;;;;;;;;;;5134855;27;20039;-79
2022/03/31 07:21:38;;;;;;;50.33;19.83;;;;;;;;;;5138013;27;20490;-78
2022/03/31 07:24:04;;;;;;;47.45;19.88;;;;;;;;;;5118522;27;20038;-79
2022/03/31 07:26:31;;;;;;;55.40;20.08;;;;;;;;;;5119351;27;20063;-78
2022/03/31 07:28:57;;;;;;;51.75;17.08;;;;;;;;;;5137885;27;20084;-78
2022/03/31 07:31:26;;;;;;;50.80;20.50;;;;;;;;;;5135194;27;20077;-78
2022/03/31 07:33:52;;;;;;;55.20;20.67;;;;;;;;;;5133544;27;20046;-78
2022/03/31 07:36:19;;;;;;;54.10;21.20;;;;;;;;;;5136096;27;20039;-78
2022/03/31 07:38:45;;;;;;;54.67;22.38;;;;;;;;;;5134763;27;20535;-77
2022/03/31 07:41:12;;;;;;;54.58;21.55;;;;;;;;;;5137436;27;20525;-77
2022/03/31 07:43:39;;;;;;;54.55;23.05;;;;;;;;;;5135152;27;20631;-78
2022/03/31 07:46:05;;;;;;;42.35;19.23;;;;;;;;;;5136415;27;20071;-78
2022/03/31 07:48:31;;;;;;;49.72;20.23;;;;;;;;;;5133947;27;20046;-77
2022/03/31 07:50:59;;;;;;;53.90;21.27;;;;;;;;;;5118440;27;20525;-77
2022/03/31 07:53:32;;;;;;;44.20;20.83;;;;;;;;;;5136544;27;20032;-78
2022/03/31 07:55:59;;;;;;;43.28;17.77;;;;;;;;;;5115473;27;20039;-78
2022/03/31 07:58:25;;;;;;;30.55;13.82;;;;;;;;;;5131028;27;20094;-77
2022/03/31 08:00:52;;;;;;;26.95;11.07;;;;;;;;;;5119361;27;20798;-78
2022/03/31 08:03:18;;;;;;;29.75;12.73;;;;;;;;;;5134909;27;20551;-78
2022/03/31 08:05:45;;;;;;;36.38;15.73;;;;;;;;;;5118823;27;20047;-79
2022/03/31 08:08:11;;;;;;;32.63;14.82;;;;;;;;;;5134258;27;20039;-79
2022/03/31 08:10:37;;;;;;;34.03;14.45;;;;;;;;;;5117317;27;20876;-78
2022/03/31 08:13:04;;;;;;;37.33;16.45;;;;;;;;;;5115816;27;20991;-78
2022/03/31 08:15:30;;;;;;;23.08;13.40;;;;;;;;;;5137741;27;20817;-78
2022/03/31 08:17:58;;;;;;;36.72;15.95;;;;;;;;;;5133887;27;20035;-78
2022/03/31 08:20:25;;;;;;;43.67;16.08;;;;;;;;;;5115563;27;20051;-82
2022/03/31 08:22:51;;;;;;;21.77;10.38;;;;;;;;;;5133761;27;20508;-79
2022/03/31 08:25:17;;;;;;;18.00;7.95;;;;;;;;;;5133420;27;20043;-78
2022/03/31 08:27:44;;;;;;;22.17;7.72;;;;;;;;;;5132406;27;20028;-78
2022/03/31 08:30:19;;;;;;;14.50;3.92;;;8.30;99.90;;;;;;5135294;27;20040;-78
2022/03/31 08:32:46;;;;;;;8.10;3.88;;;7.50;99.90;;;;;;5134747;27;20126;-77
2022/03/31 08:35:13;;;;;;;13.35;3.22;;;7.40;99.90;;;;;;5137861;27;20058;-78
2022/03/31 08:37:40;;;;;;;7.25;3.22;;;7.30;99.90;;;;;;5132713;27;20493;-77
2022/03/31 08:40:11;;;;;;;5.13;2.08;;;7.20;99.90;;;;;;5133442;27;20117;-78
2022/03/31 08:42:38;;;;;;;5.32;4.00;;;7.20;99.90;;;;;;5131342;27;20051;-77
2022/03/31 08:45:05;;;;;;;3.28;1.77;;;7.30;99.90;;;;;;5136106;27;20521;-78
2022/03/31 08:47:30;;;;;;;3.28;1.95;;;7.30;99.90;;;;;;5134605;27;20040;-78
2022/03/31 08:49:57;;;;;;;3.33;2.22;;;7.40;99.90;;;;;;5130868;27;20040;-78
2022/03/31 08:52:24;;;;;;;2.33;1.63;;;7.40;99.90;;;;;;5136808;27;20062;-85
2022/03/31 08:54:50;;;;;;;4.05;2.13;;;7.40;99.90;;;;;;5129841;27;20606;-85
2022/03/31 08:57:17;;;;;;;2.97;1.80;;;7.30;99.90;;;;;;5135026;27;20035;-86
2022/03/31 08:59:46;;;;;;;2.13;1.63;;;7.40;99.90;;;;;;5113883;27;20048;-86
2022/03/31 09:02:25;;;;;;;1.85;1.30;;;7.40;99.90;;;;;;5135219;27;20039;-86
2022/03/31 09:05:06;;;;;;;2.78;1.40;;;7.40;99.90;;;;;;5132926;27;20054;-86
2022/03/31 09:07:32;;;;;;;2.00;1.20;;;7.30;99.90;;;;;;5137380;27;20043;-86
2022/03/31 09:09:58;;;;;;;2.03;1.02;;;7.30;99.90;;;;;;5138274;27;20040;-86
2022/03/31 09:12:26;;;;;;;2.90;0.95;;;7.30;99.90;;;;;;5119772;27;20046;-87
2022/03/31 09:14:54;;;;;;;1.27;1.00;;;7.30;99.90;;;;;;5134554;27;20039;-86
2022/03/31 09:17:20;;;;;;;1.50;0.90;;;7.40;99.90;;;;;;5118172;27;20129;-85
2022/03/31 09:19:55;;;;;;;1.35;1.10;;;7.30;99.90;;;;;;5121441;27;20126;-86
2022/03/31 09:22:21;;;;;;;1.23;1.13;;;6.80;99.90;;;;;;5115496;27;20176;-86
2022/03/31 09:24:47;;;;;;;0.95;0.70;;;7.30;99.90;;;;;;5120315;27;20065;-86
2022/03/31 09:27:13;;;;;;;1.75;0.93;;;7.30;99.90;;;;;;5131400;27;20077;-87
2022/03/31 09:29:41;;;;;;;1.10;0.93;;;7.20;99.90;;;;;;5121219;27;20043;-86
2022/03/31 09:32:07;;;;;;;1.25;1.02;;;7.30;99.90;;;;;;5118007;27;20095;-86
2022/03/31 09:34:40;;;;;;;1.60;1.08;;;;;;;;;;5121749;27;20059;-86
2022/03/31 09:37:05;;;;;;;;;;;7.50;99.90;;;;;;5117893;27;20031;-87
2022/03/31 09:39:31;;;;;;;3.42;1.23;;;7.50;99.90;;;;;;5135330;27;20401;-87
2022/03/31 09:41:57;;;;;;;1.15;1.02;;;7.60;99.90;;;;;;5116596;27;20510;-86
2022/03/31 09:44:23;;;;;;;3.63;1.33;;;7.60;99.90;;;;;;5118438;27;20039;-87
2022/03/31 09:46:51;;;;;;;1.52;1.00;;;7.60;99.90;;;;;;5120571;27;20475;-88
2022/03/31 09:49:27;;;;;;;1.38;1.15;;;7.70;99.90;;;;;;5121198;27;20049;-87
2022/03/31 09:52:04;;;;;;;2.47;1.20;;;7.90;99.90;;;;;;5134757;27;20039;-87
2022/03/31 09:54:31;;;;;;;1.65;1.00;;;8.10;99.90;;;;;;5136440;27;20041;-86
2022/03/31 09:56:59;;;;;;;2.13;1.15;;;8.00;99.90;;;;;;5134307;27;20501;-86
2022/03/31 09:59:36;;;;;;;2.88;1.33;;;8.10;99.90;;;;;;5135803;27;20338;-86
2022/03/31 10:02:05;;;;;;;0.98;0.70;;;8.20;99.90;;;;;;5119548;27;20051;-87
2022/03/31 10:04:32;;;;;;;1.77;1.25;;;8.30;99.90;;;;;;5141613;27;20043;-86
2022/03/31 10:06:59;;;;;;;1.83;1.10;;;8.30;99.90;;;;;;5139568;27;20092;-86
2022/03/31 10:09:25;;;;;;;1.95;1.42;;;8.30;99.90;;;;;;5122737;27;20047;-86
2022/03/31 10:12:24;;;;;;;4.75;1.10;;;8.30;99.90;;;;;;5144247;27;20121;-86
2022/03/31 10:14:55;;;;;;;0.90;0.80;;;8.50;99.90;;;;;;5137118;27;20027;-85
2022/03/31 10:17:29;;;;;;;1.45;0.98;;;8.50;99.90;;;;;;5143685;27;20980;-85
2022/03/31 10:20:10;;;;;;;1.10;0.70;;;8.50;99.90;;;;;;5144354;27;20066;-83
2022/03/31 10:25:20;;;;;;;1.60;1.25;;;8.20;99.90;;;;;;5159118;27;20050;-84
2022/03/31 10:27:50;;;;;;;1.73;1.15;;;8.20;99.90;;;;;;5159586;27;20032;-85
2022/03/31 10:30:21;;;;;;;1.75;1.17;;;8.10;99.90;;;;;;5153936;27;20116;-84
2022/03/31 10:32:55;;;;;;;1.25;1.13;;;8.10;99.90;;;;;;5121921;27;20480;-82
2022/03/31 10:35:32;;;;;;;2.63;1.40;;;8.00;99.90;;;;;;5139112;27;20039;-84
2022/03/31 10:38:10;;;;;;;1.17;1.00;;;7.90;99.90;;;;;;5125071;27;20044;-83
2022/03/31 10:40:38;;;;;;;1.15;0.88;;;8.00;99.90;;;;;;5138757;27;20036;-83
2022/03/31 10:43:11;;;;;;;2.70;1.33;;;8.20;99.90;;;;;;5139317;27;20653;-84
2022/03/31 10:45:40;;;;;;;1.15;0.77;;;8.20;99.90;;;;;;5142177;27;20031;-83
2022/03/31 10:48:22;;;;;;;1.48;0.95;;;8.30;99.90;;;;;;5143238;27;20505;-83
2022/03/31 10:51:00;;;;;;;1.25;0.70;;;8.40;99.90;;;;;;5127304;27;20046;-83
2022/03/31 10:53:31;;;;;;;1.23;0.65;;;8.60;99.90;;;;;;5141729;27;20571;-82
2022/03/31 10:55:59;;;;;;;2.17;1.05;;;8.60;99.90;;;;;;5146092;27;20039;-82
2022/03/31 10:58:30;;;;;;;2.58;1.30;;;8.50;99.90;;;;;;5138923;27;20071;-81
2022/03/31 11:01:03;;;;;;;1.60;0.90;;;8.70;99.90;;;;;;5122100;27;20461;-82
2022/03/31 11:03:29;;;;;;;1.25;1.15;;;8.70;99.90;;;;;;5119382;27;20562;-82
2022/03/31 11:05:59;;;;;;;0.70;0.70;;;8.70;99.90;;;;;;5122104;27;20044;-83
2022/03/31 11:08:25;;;;;;;1.92;0.70;;;8.60;99.90;;;;;;5122596;27;20051;-81
2022/03/31 11:10:54;;;;;;;1.45;0.82;;;8.50;99.90;;;;;;5115383;27;20047;-85
2022/03/31 11:13:31;;;;;;;1.33;0.93;;;8.20;99.90;;;;;;5119357;27;20097;-86
2022/03/31 11:15:57;;;;;;;2.38;1.15;;;8.10;99.90;;;;;;5121565;27;20039;-85
2022/03/31 11:18:30;;;;;;;0.73;0.52;;;8.00;99.90;;;;;;5137064;27;20038;-86
2022/03/31 11:21:00;;;;;;;0.88;0.75;;;8.00;99.90;;;;;;5122207;27;20381;-86
2022/03/31 11:23:27;;;;;;;1.40;0.88;;;8.10;99.90;;;;;;5116995;27;20188;-86
2022/03/31 11:25:57;;;;;;;2.10;1.45;;;8.30;99.90;;;;;;5119450;27;20043;-86
2022/03/31 11:28:27;;;;;;;1.05;0.68;;;8.50;99.90;;;;;;5117649;27;20117;-86
2022/03/31 11:30:54;;;;;;;1.45;1.15;;;8.70;99.90;;;;;;5119034;27;20054;-85
2022/03/31 11:33:34;;;;;;;2.78;1.23;;;8.70;99.90;;;;;;5116854;27;20093;-86
2022/03/31 11:36:01;;;;;;;0.85;0.82;;;8.70;99.90;;;;;;5119797;27;21013;-86
2022/03/31 11:38:27;;;;;;;1.83;1.05;;;8.60;99.90;;;;;;5119332;27;20138;-85
2022/03/31 11:40:52;;;;;;;3.08;1.33;;;8.50;99.90;;;;;;5117965;27;20139;-85
2022/03/31 11:43:19;;;;;;;1.65;1.20;;;8.30;99.90;;;;;;5135385;27;20531;-86
2022/03/31 11:45:51;;;;;;;2.53;1.33;;;8.20;99.90;;;;;;5118707;27;20039;-85
2022/03/31 11:48:31;;;;;;;1.10;0.88;;;8.00;99.90;;;;;;5135305;27;20035;-85
2022/03/31 11:50:59;;;;;;;1.90;1.50;;;8.10;99.90;;;;;;5138844;27;20042;-86
2022/03/31 11:53:26;;;;;;;0.47;0.47;;;8.60;99.90;;;;;;5137006;27;20039;-86
2022/03/31 11:56:11;;;;;;;1.83;1.13;;;9.00;99.90;;;;;;5134053;27;20110;-86
2022/03/31 11:58:49;;;;;;;1.15;0.75;;;9.30;99.90;;;;;;5133394;27;20047;-86
2022/03/31 12:01:17;;;;;;;1.13;1.00;;;9.40;99.90;;;;;;5139049;27;20035;-85
2022/03/31 12:03:43;;;;;;;2.83;1.50;;;;;;;;;;5117275;27;20046;-85
2022/03/31 12:06:10;;;;;;;5.65;1.25;;;;;;;;;;5117322;27;20789;-85
2022/03/31 12:09:07;;;;;;;1.42;0.90;;;;;;;;;;5136163;27;20871;-85
2022/03/31 12:11:48;;;;;;;2.55;1.13;;;;;;;;;;5138641;27;20527;-85
2022/03/31 12:17:23;;;;;;;;;;;;;;;;;;;;;
2022/03/31 12:20:15;;;;;;;3.50;1.33;;;;;;;;;;5018952;28;38512;-86
2022/03/31 12:22:57;;;;;;;4.10;1.43;;;;;;;;;;5108258;27;20061;-84
2022/03/31 12:25:44;;;;;;;0.65;0.65;;;;;;;;;;5118822;27;21013;-84
2022/03/31 12:28:23;;;;;;;1.65;1.20;;;;;;;;;;5121220;27;20051;-84
2022/03/31 12:31:07;;;;;;;1.40;0.98;;;;;;;;;;5118885;27;20055;-84
2022/03/31 12:33:50;;;;;;;1.80;1.25;;;;;;;;;;5119516;27;20952;-84
2022/03/31 12:36:39;;;;;;;;;;;;;;;;;;;;;
2022/03/31 12:39:15;;;;;;;4.03;0.95;;;;;;;;;;5133647;27;40235;-85
2022/03/31 12:41:56;;;;;;;3.30;1.30;;;;;;;;;;5117941;27;20070;-84
2022/03/31 12:44:34;;;;;;;1.45;1.10;;;;;;;;;;5122145;27;20062;-85
2022/03/31 12:47:12;;;;;;;1.13;0.90;;;;;;;;;;5122364;27;20178;-85
2022/03/31 12:49:55;;;;;;;2.90;1.27;;;;;;;;;;5121005;27;20044;-85
2022/03/31 12:52:33;;;;;;;2.03;1.58;;;;;;;;;;5120886;27;20075;-85
2022/03/31 12:55:16;;;;;;;3.20;1.70;;;;;;;;;;5114826;27;20050;-84
2022/03/31 12:57:57;;;;;;;1.20;1.02;;;;;;;;;;5111684;27;20101;-85
2022/03/31 13:00:49;;;;;;;3.95;1.95;;;;;;;;;;5116153;27;20048;-84
2022/03/31 13:03:29;;;;;;;;;;;;;;;;;;5110846;27;21821;-84
2022/03/31 13:06:11;;;;;;;0.43;0.32;;;;;;;;;;5118115;27;20453;-84
2022/03/31 13:08:47;;;;;;;1.20;0.90;;;;;;;;;;5112501;27;20188;-83
2022/03/31 13:11:25;;;;;;;2.85;1.42;;;;;;;;;;5114101;27;20556;-84
2022/03/31 13:13:59;;;;;;;3.80;1.02;;;;;;;;;;5115046;27;20101;-84
2022/03/31 13:19:27;;;;;;;2.22;1.30;;;;;;;;;;5114515;27;20560;-84
2022/03/31 13:21:58;;;;;;;1.83;1.00;;;;;;;;;;5116930;27;20035;-84
2022/03/31 13:24:43;;;;;;;2.35;1.67;;;;;;;;;;5117167;27;20039;-84
2022/03/31 13:27:19;;;;;;;1.85;1.02;;;;;;;;;;5115409;27;20048;-84
2022/03/31 13:30:22;;;;;;;1.40;0.88;;;;;;;;;;5114377;27;20493;-81
2022/03/31 13:32:53;;;;;;;1.90;1.38;;;;;;;;;;5112405;27;20098;-85
2022/03/31 13:35:29;;;;;;;2.42;1.70;;;;;;;;;;5117763;27;20046;-84
2022/03/31 13:38:03;;;;;;;2.15;1.38;;;;;;;;;;5115058;27;20051;-85
2022/03/31 13:40:52;;;;;;;2.58;1.75;;;;;;;;;;5113558;27;20471;-85
2022/03/31 13:43:25;;;;;;;2.00;1.30;;;;;;;;;;5113047;27;20036;-86
2022/03/31 13:46:07;;;;;;;1.17;0.73;;;;;;;;;;5117191;27;20500;-85
2022/03/31 13:48:40;;;;;;;1.88;1.20;;;;;;;;;;5118840;27;20176;-83
2022/03/31 13:51:08;;;;;;;1.70;1.42;;;;;;;;;;5118318;27;20044;-85
2022/03/31 13:53:45;;;;;;;2.28;1.92;;;;;;;;;;5122208;27;20032;-84
2022/03/31 13:56:12;;;;;;;2.72;1.75;;;;;;;;;;5116785;27;20077;-77
2022/03/31 14:01:37;;;;;;;2.13;1.50;;;;;;;;;;5147430;27;20036;-84
2022/03/31 14:04:04;;;;;;;1.58;0.95;;;;;;;;;;5151954;27;20042;-82
2022/03/31 14:06:30;;;;;;;1.92;1.25;;;;;;;;;;5126906;27;20921;-79
2022/03/31 14:08:59;;;;;;;1.42;1.33;;;;;;;;;;5121889;27;20061;-80
2022/03/31 14:11:30;;;;;;;0.90;0.70;;;;;;;;;;5142051;27;20130;-81
2022/03/31 14:14:02;;;;;;;2.50;2.00;;;;;;;;;;5140224;27;20054;-81
2022/03/31 14:16:33;;;;;;;1.30;1.20;;;;;;;;;;5122092;27;20043;-80
2022/03/31 14:19:00;;;;;;;1.52;1.40;;;;;;;;;;5115761;27;20332;-81
2022/03/31 14:21:26;;;;;;;1.40;0.95;;;;;;;;;;5120271;27;20543;-82
2022/03/31 14:23:55;;;;;;;0.98;0.90;;;;;;;;;;5115342;27;20077;-81
2022/03/31 14:26:25;;;;;;;1.77;1.08;;;;;;;;;;5119757;27;20048;-80
2022/03/31 14:28:51;;;;;;;1.35;0.77;;;;;;;;;;5134976;27;20051;-82
2022/03/31 14:31:23;;;;;;;1.45;1.35;;;;;;;;;;5121988;27;20596;-81
2022/03/31 14:33:49;;;;;;;1.27;0.95;;;;;;;;;;5118552;27;20036;-81
2022/03/31 14:36:19;;;;;;;2.00;1.80;;;;;;;;;;5136731;27;20041;-84
2022/03/31 14:38:45;;;;;;;2.08;1.73;;;;;;;;;;5132438;27;20036;-81
2022/03/31 14:41:13;;;;;;;2.65;1.10;;;;;;;;;;5134542;27;20048;-81
2022/03/31 14:43:44;;;;;;;2.10;1.05;;;;;;;;;;5116684;27;20036;-82
2022/03/31 14:46:11;;;;;;;1.45;1.00;;;;;;;;;;5117084;27;20508;-83
2022/03/31 14:48:37;;;;;;;0.50;0.50;;;;;;;;;;5122856;27;20042;-80
2022/03/31 14:51:04;;;;;;;2.40;1.30;;;;;;;;;;5140500;27;20091;-80
2022/03/31 14:53:31;;;;;;;1.48;1.38;;;;;;;;;;5118864;27;20039;-80
2022/03/31 14:55:58;;;;;;;0.77;0.77;;;;;;;;;;5119904;27;20035;-80
2022/03/31 14:58:26;;;;;;;5.78;0.75;;;;;;;;;;5136025;27;20063;-79
2022/03/31 15:00:52;;;;;;;0.70;0.70;;;;;;;;;;5138864;27;20044;-81